Wednesday May 24, 2017 at 6:30 a.m.

AVIATION AREA FORECAST

SIGNIFICANT FEATURES……… A High Pressure Ridge across Jamaica and the northern Caribbean.

TODAY'S FORECAST
This Morning… Partly cloudy across eastern parishes, mainly sunny elsewhere. Windy across southern areas.
This Afternoon… Partly cloudy with some isolated showers across hilly inland areas, mainly sunny elsewhere.
Windy across southern areas.
Tonight… Fair.

CLOUDS GENERALLY ACROSS THE ISLAND:
This Morning… FEW024
This Afternoon… FEW022 SCT035


WINDS AND TEMPERATURES

Flight 20N 80W 20N 75W
Levels WIND/TEMP WIND/TEMP
450 28042KT/-66 30027KT/-66
390 29042KT/-51 30029KT/-52
340 28035KT/-40 30029KT/-40
300 27025KT/-29 30019KT/-30
240 24008KT/-15 25004KT/-16
180 22017KT/-06 23004KT/-07
100 19012KT/11 17019KT/10
50 17025KT/18 16023KT/19

Flight 15N 80W 15N 75W
Levels WIND/TEMP WIND/TEMP
450 31014KT/-66 32023KT/-66
390 32014KT/-51 28021KT/-52
340 30010KT/-38 27015KT/-39
300 03008KT/-29 28014KT/-29
240 07012KT/-13 29008KT/-15
180 17004KT/-05 11012KT/-05
100 13015KT/12 13025KT/11
50 12021KT/19 13033KT/20




AERODROME  FORECAST
MKJP 241115Z 2412/2512 14022KT 9999 FEW022
TEMPO 2415/2422 14022G32KT
BECMG 2500/2502 12015KT

MKJS 241115Z 2412/2512 14003KT 9999 FEW022
BECMG 2412/2414 08015KT
PROB30
TEMPO 2418/2424 SHRA SCT020 SCT034
BECMG 2500/2502 14003KT

JKH